Big Bear Station Historical Data
Daily Summary for October 20, 2017 Units:  English    Metric   Both
« Previous Day
Next Day »
Daily Weekly Monthly Yearly Custom
  High: Low: Average:
Temperature: 53.1 °F 37.8 °F 45.1 °F
Dew Point: 42.7 °F 18.8 °F 37.9 °F
Humidity: 93 % 35 % 77 %
Wind Speed: 7.8 mph 0.0 mph 3.2 mph
Wind Gust: -999.0 mph - -
Wind:- - West
Pressure: 30.09 in 30.03 in -
Precipitation: 0.00 in    
Historical Graphs
 
 
Tabular Data for October 20, 2017
Time Temperature Dew Point Pressure Wind Wind Speed Wind Gust Humidity Rainfall Rate (Hourly)
00:09 43.2 °F 34.8 °F 30.08 in Calm   -999.0 mph 72 % 0 in
00:24 42.8 °F 35.4 °F 30.09 in Calm   -999.0 mph 75 % 0 in
00:39 43.5 °F 35.8 °F 30.08 in Calm   -999.0 mph 74 % 0 in
00:54 44.2 °F 36.4 °F 30.09 in Calm   -999.0 mph 74 % 0 in
01:10 43.7 °F 36.6 °F 30.09 in Calm   -999.0 mph 76 % 0 in
01:25 44.2 °F 37.8 °F 30.09 in North 2.7 mph -999.0 mph 78 % 0 in
01:40 45.0 °F 39.5 °F 30.09 in WNW 3.7 mph -999.0 mph 81 % 0 in
01:55 44.8 °F 40.3 °F 30.09 in NNW 2.7 mph -999.0 mph 84 % 0 in
02:10 44.6 °F 40.4 °F 30.08 in West 3.7 mph -999.0 mph 85 % 0 in
02:26 44.6 °F 40.7 °F 30.07 in ENE 4.7 mph -999.0 mph 86 % 0 in
02:41 45.0 °F 41.1 °F 30.07 in SW 5.3 mph -999.0 mph 86 % 0 in
02:56 45.3 °F 41.4 °F 30.06 in WNW 4.7 mph -999.0 mph 86 % 0 in
03:12 45.5 °F 41.6 °F 30.06 in NW 4.7 mph -999.0 mph 86 % 0 in
03:27 45.1 °F 41.5 °F 30.06 in ESE 4.2 mph -999.0 mph 87 % 0 in
03:42 45.0 °F 41.4 °F 30.06 in WNW 3.7 mph -999.0 mph 87 % 0 in
03:58 44.6 °F 41.6 °F 30.06 in WSW 2.7 mph -999.0 mph 89 % 0 in
04:13 44.4 °F 41.1 °F 30.05 in WNW 4.7 mph -999.0 mph 88 % 0 in
04:28 44.4 °F 41.1 °F 30.05 in Calm   -999.0 mph 88 % 0 in
04:43 43.9 °F 40.9 °F 30.05 in Calm   -999.0 mph 89 % 0 in
04:58 43.3 °F 40.9 °F 30.05 in West 1.1 mph -999.0 mph 91 % 0 in
05:14 43.0 °F 41.1 °F 30.05 in NNW 1.1 mph -999.0 mph 93 % 0 in
05:29 42.8 °F 40.6 °F 30.05 in NW 4.7 mph -999.0 mph 92 % 0 in
05:44 42.8 °F 40.6 °F 30.05 in West 2.7 mph -999.0 mph 92 % 0 in
05:59 43.0 °F 41.1 °F 30.05 in Calm   -999.0 mph 93 % 0 in
06:15 42.8 °F 40.9 °F 30.06 in Calm   -999.0 mph 93 % 0 in
06:30 42.4 °F 40.5 °F 30.06 in NNW 2.7 mph -999.0 mph 93 % 0 in
06:45 42.1 °F 39.9 °F 30.06 in NNW 1.1 mph -999.0 mph 92 % 0 in
07:00 41.9 °F 40.0 °F 30.06 in WNW 3.7 mph -999.0 mph 93 % 0 in
07:16 41.9 °F 40.0 °F 30.05 in NW 2.2 mph -999.0 mph 93 % 0 in
07:31 42.1 °F 39.7 °F 30.06 in West 2.2 mph -999.0 mph 91 % 0 in
07:46 41.9 °F 40.0 °F 30.06 in WNW 2.2 mph -999.0 mph 93 % 0 in
08:01 42.1 °F 40.2 °F 30.06 in NNW 2.7 mph -999.0 mph 93 % 0 in
08:16 42.6 °F 40.4 °F 30.06 in West 2.2 mph -999.0 mph 92 % 0 in
08:32 42.8 °F 40.6 °F 30.06 in NW 4.7 mph -999.0 mph 92 % 0 in
08:47 43.3 °F 40.6 °F 30.06 in NW 2.7 mph -999.0 mph 90 % 0 in
09:02 43.9 °F 40.9 °F 30.06 in WNW 7.8 mph -999.0 mph 89 % 0 in
09:17 44.6 °F 41.0 °F 30.06 in WSW 4.2 mph -999.0 mph 87 % 0 in
09:33 45.5 °F 40.9 °F 30.07 in NW 4.2 mph -999.0 mph 84 % 0 in
09:48 46.4 °F 41.5 °F 30.06 in NW 3.2 mph -999.0 mph 83 % 0 in
10:03 47.1 °F 41.2 °F 30.06 in West 2.2 mph -999.0 mph 80 % 0 in
10:19 47.8 °F 41.9 °F 30.06 in NW 4.2 mph -999.0 mph 80 % 0 in
10:34 48.9 °F 42.7 °F 30.05 in SSW 2.7 mph -999.0 mph 79 % 0 in
10:49 51.3 °F 41.1 °F 30.05 in NW 5.8 mph -999.0 mph 68 % 0 in
11:05 51.8 °F 41.6 °F 30.06 in WSW 7.3 mph -999.0 mph 68 % 0 in
11:20 52.5 °F 40.3 °F 30.06 in ENE 4.2 mph -999.0 mph 63 % 0 in
11:35 52.0 °F 42.5 °F 30.06 in NNW 6.8 mph -999.0 mph 70 % 0 in
11:50 50.9 °F 41.5 °F 30.06 in North 4.2 mph -999.0 mph 70 % 0 in
12:05 52.0 °F 41.8 °F 30.05 in NNW 4.2 mph -999.0 mph 68 % 0 in
12:21 51.8 °F 40.4 °F 30.06 in NW 7.8 mph -999.0 mph 65 % 0 in
12:36 51.1 °F 40.1 °F 30.06 in WNW 4.7 mph -999.0 mph 66 % 0 in
12:51 52.9 °F 41.5 °F 30.06 in West 5.8 mph -999.0 mph 65 % 0 in
13:07 52.2 °F 41.6 °F 30.05 in NW 6.8 mph -999.0 mph 67 % 0 in
13:22 52.3 °F 41.7 °F 30.04 in NNW 6.8 mph -999.0 mph 67 % 0 in
13:37 52.0 °F 41.4 °F 30.05 in NW 3.2 mph -999.0 mph 67 % 0 in
13:53 53.1 °F 42.0 °F 30.04 in West 6.3 mph -999.0 mph 66 % 0 in
14:08 51.1 °F 41.7 °F 30.04 in NW 5.8 mph -999.0 mph 70 % 0 in
14:23 50.4 °F 41.7 °F 30.04 in North 5.8 mph -999.0 mph 72 % 0 in
14:38 50.2 °F 42.2 °F 30.04 in NW 5.3 mph -999.0 mph 74 % 0 in
14:54 50.5 °F 42.5 °F 30.05 in West 4.2 mph -999.0 mph 74 % 0 in
15:09 50.7 °F 42.0 °F 30.04 in North 4.2 mph -999.0 mph 72 % 0 in
15:24 50.0 °F 41.3 °F 30.04 in NW 4.7 mph -999.0 mph 72 % 0 in
15:40 49.1 °F 40.8 °F 30.04 in NNW 7.3 mph -999.0 mph 73 % 0 in
15:55 48.2 °F 41.0 °F 30.04 in NNW 5.3 mph -999.0 mph 76 % 0 in
16:11 47.7 °F 41.5 °F 30.04 in WSW 4.7 mph -999.0 mph 79 % 0 in
16:26 47.1 °F 41.6 °F 30.03 in WNW 5.3 mph -999.0 mph 81 % 0 in
16:41 46.6 °F 41.4 °F 30.04 in SW 3.7 mph -999.0 mph 82 % 0 in
17:11 45.5 °F 40.9 °F 30.04 in West 2.2 mph -999.0 mph 84 % 0 in
17:27 45.0 °F 40.8 °F 30.05 in NNE 3.7 mph -999.0 mph 85 % 0 in
17:42 44.2 °F 40.3 °F 30.04 in WSW 2.7 mph -999.0 mph 86 % 0 in
17:57 43.7 °F 39.8 °F 30.04 in WNW 2.7 mph -999.0 mph 86 % 0 in
18:13 43.0 °F 40.0 °F 30.04 in ESE 1.7 mph -999.0 mph 89 % 0 in
18:28 42.6 °F 40.2 °F 30.05 in SSW 2.7 mph -999.0 mph 91 % 0 in
18:43 42.1 °F 39.7 °F 30.04 in Calm   -999.0 mph 91 % 0 in
18:58 41.4 °F 39.0 °F 30.05 in Calm   -999.0 mph 91 % 0 in
19:13 41.0 °F 38.9 °F 30.06 in Calm   -999.0 mph 92 % 0 in
19:29 40.5 °F 38.1 °F 30.06 in Calm   -999.0 mph 91 % 0 in
19:44 39.6 °F 36.6 °F 30.06 in Calm   -999.0 mph 89 % 0 in
19:59 38.8 °F 35.0 °F 30.05 in East 1.7 mph -999.0 mph 86 % 0 in
20:29 38.3 °F 33.9 °F 30.06 in SSE 2.7 mph -999.0 mph 84 % 0 in
20:45 37.8 °F 30.3 °F 30.07 in SSE 1.7 mph -999.0 mph 74 % 0 in
21:01 38.5 °F 29.2 °F 30.07 in SSW 1.7 mph -999.0 mph 69 % 0 in
21:16 39.4 °F 23.7 °F 30.06 in South 1.7 mph -999.0 mph 53 % 0 in
21:32 39.7 °F 24.8 °F 30.06 in SSE 1.7 mph -999.0 mph 55 % 0 in
21:47 39.7 °F 23.0 °F 30.07 in Calm   -999.0 mph 51 % 0 in
22:02 39.2 °F 21.1 °F 30.07 in SE 2.2 mph -999.0 mph 48 % 0 in
22:17 40.1 °F 18.8 °F 30.08 in SE 1.1 mph -999.0 mph 42 % 0 in
22:33 39.7 °F 20.1 °F 30.08 in NW 3.2 mph -999.0 mph 45 % 0 in
22:48 40.3 °F 21.1 °F 30.08 in Calm   -999.0 mph 46 % 0 in
23:03 42.6 °F 22.2 °F 30.07 in Calm   -999.0 mph 44 % 0 in
23:19 44.4 °F 21.6 °F 30.07 in WNW 6.8 mph -999.0 mph 40 % 0 in
23:34 46.9 °F 20.7 °F 30.07 in WNW 7.8 mph -999.0 mph 35 % 0 in
23:49 46.8 °F 22.5 °F 30.06 in WNW 7.8 mph -999.0 mph 38 % 0 in
Big Bear CA Weather
Compliments of Weather Underground - 1.5 mb